Time;durP1;ratioP1;P1;durP2;ratioP2;P2;SDS_P1;SDS_P2;PMS_P1;PMS_P2;Temp;Humidity;BMP_temperature;BMP_pressure;BME280_temperature;BME280_humidity;BME280_pressure;Samples;Min_cycle;Max_cycle;Signal;HPM_P1;HPM_P2
2021/03/20 15:01:44;;;;;;;24.57;9.13;;;;;;;0.87;60.52;99585.25;123884;1106;104232;-74
2021/03/20 15:04:12;;;;;;;25.47;9.17;;;;;;;0.85;60.34;99568.72;123962;1109;104210;-75
2021/03/20 15:06:45;;;;;;;28.53;10.53;;;;;;;0.85;60.53;99573.08;123815;1109;104293;-75
2021/03/20 15:09:12;;;;;;;29.90;11.00;;;;;;;0.82;59.90;99570.53;123841;1109;104243;-76
2021/03/20 15:11:39;;;;;;;31.80;11.93;;;;;;;0.85;60.37;99570.45;123879;1109;104226;-74
2021/03/20 15:14:06;;;;;;;25.47;9.30;;;;;;;0.86;60.45;99564.32;123905;1108;104256;-75
2021/03/20 15:16:42;;;;;;;22.70;8.07;;;;;;;0.88;59.74;99565.14;124049;1108;104211;-75
2021/03/20 15:19:11;;;;;;;20.53;8.47;;;;;;;0.94;59.83;99567.61;123917;1108;104213;-75
2021/03/20 15:21:38;;;;;;;23.37;8.57;;;;;;;0.99;60.28;99567.52;123891;1106;104242;-75
2021/03/20 15:24:06;;;;;;;22.83;7.90;;;;;;;1.02;60.05;99567.41;123941;1109;104165;-75
2021/03/20 15:26:33;;;;;;;22.50;8.07;;;;;;;1.04;59.71;99561.25;123818;1108;104262;-75
2021/03/20 15:29:00;;;;;;;25.87;10.00;;;;;;;1.06;60.16;99561.20;123840;1109;104249;-74
2021/03/20 15:31:35;;;;;;;22.10;8.00;;;;;;;1.07;59.55;99556.83;123880;1108;104190;-74
2021/03/20 15:34:03;;;;;;;23.37;9.83;;;;;;;1.04;59.38;99557.75;123843;1107;104182;-75
2021/03/20 15:36:35;;;;;;;27.27;10.77;;;;;;;1.01;59.50;99560.48;123846;1106;104329;-75
2021/03/20 15:39:06;;;;;;;26.13;10.63;;;;;;;1.00;59.70;99554.36;125085;1109;104287;-77
2021/03/20 15:41:36;;;;;;;30.50;10.80;;;;;;;0.98;59.43;99555.31;123806;1109;104374;-73
2021/03/20 15:44:05;;;;;;;30.17;11.00;;;;;;;0.94;59.48;99557.14;123872;1109;104264;-75
2021/03/20 15:46:32;;;;;;;30.83;11.13;;;;;;;0.86;59.19;99552.10;123753;1109;104316;-73
2021/03/20 15:49:01;;;;;;;27.03;11.40;;;;;;;0.82;59.32;99553.08;123778;1109;104207;-75
2021/03/20 15:51:28;;;;;;;28.27;11.47;;;;;;;0.73;59.03;99548.06;123795;1108;104163;-77
2021/03/20 15:53:55;;;;;;;29.07;12.05;;;;;;;0.66;59.44;99547.36;123836;1109;104310;-76
2021/03/20 15:56:23;;;;;;;32.75;12.28;;;;;;;0.65;59.23;99553.49;123820;1109;104163;-76
2021/03/20 15:58:51;;;;;;;30.10;12.20;;;;;;;0.66;59.15;99547.36;123843;1109;105874;-75
2021/03/20 16:01:20;;;;;;;31.23;13.07;;;;;;;0.68;59.03;99548.19;123897;1109;104408;-75
2021/03/20 16:03:48;;;;;;;33.73;14.03;;;;;;;0.73;59.21;99556.79;123743;1109;104300;-74
2021/03/20 16:06:16;;;;;;;29.13;12.60;;;;;;;0.74;58.94;99553.27;123687;1109;104274;-75
2021/03/20 16:08:48;;;;;;;31.33;13.13;;;;;;;0.69;59.15;99555.14;123721;1109;104348;-75
2021/03/20 16:11:17;;;;;;;32.13;12.70;;;;;;;0.66;58.85;99552.59;123741;1109;104220;-72
2021/03/20 16:13:46;;;;;;;29.33;12.93;;;;;;;0.65;58.53;99555.23;123752;1109;104146;-75
2021/03/20 16:16:15;;;;;;;30.87;13.70;;;;;;;0.63;58.79;99555.28;123701;1109;104268;-75
2021/03/20 16:18:42;;;;;;;33.07;14.47;;;;;;;0.58;58.75;99554.53;123748;1109;104194;-73
2021/03/20 16:21:13;;;;;;;33.17;14.00;;;;;;;0.54;58.79;99551.14;123739;1109;104916;-74
2021/03/20 16:23:40;;;;;;;35.57;14.20;;;;;;;0.53;58.79;99554.66;123632;1109;104609;-72
2021/03/20 16:26:11;;;;;;;32.60;13.40;;;;;;;0.53;58.81;99557.27;123660;1109;104224;-73
2021/03/20 16:28:43;;;;;;;42.83;13.13;;;;;;;0.52;58.87;99558.16;123656;1108;104194;-79
2021/03/20 16:31:20;;;;;;;34.13;14.20;;;;;;;0.53;58.72;99561.63;124167;1109;104185;-81
2021/03/20 16:33:49;;;;;;;39.43;16.00;;;;;;;0.49;58.89;99560.85;124171;1109;104852;-80
2021/03/20 16:36:20;;;;;;;40.57;15.97;;;;;;;0.48;58.57;99556.52;123804;1109;104261;-81
2021/03/20 16:38:47;;;;;;;38.67;16.17;;;;;;;0.43;58.40;99558.37;123761;1108;104252;-81
2021/03/20 16:41:23;;;;;;;40.10;17.13;;;;;;;0.37;58.17;99551.53;124189;1109;104230;-79
2021/03/20 16:43:50;;;;;;;47.77;19.93;;;;;;;0.35;58.55;99549.83;123716;1109;104223;-79
2021/03/20 16:46:19;;;;;;;52.07;22.77;;;;;;;0.35;58.25;99540.24;123730;1108;104341;-78
2021/03/20 16:48:47;;;;;;;53.97;23.27;;;;;;;0.33;58.36;99539.41;123699;1109;104169;-76
2021/03/20 16:51:26;;;;;;;45.37;18.90;;;;;;;0.30;58.18;99542.10;123799;1109;104181;-77
2021/03/20 16:53:54;;;;;;;41.73;17.83;;;;;;;0.25;57.93;99539.57;123755;1108;104243;-76
2021/03/20 16:56:22;;;;;;;41.40;16.50;;;;;;;0.18;57.96;99550.22;123887;1108;104214;-83
2021/03/20 16:58:55;;;;;;;40.27;18.30;;;;;;;0.13;57.72;99553.80;124226;1108;104255;-85
2021/03/20 17:01:25;;;;;;;37.17;15.17;;;;;;;0.10;57.74;99553.86;124195;1109;104191;-86
2021/03/20 17:03:54;;;;;;;43.97;18.60;;;;;;;0.08;57.78;99549.57;124308;1109;104249;-80
2021/03/20 17:06:29;;;;;;;40.53;17.80;;;;;;;0.05;57.92;99547.02;124231;1109;104165;-83
2021/03/20 17:08:57;;;;;;;42.50;19.53;;;;;;;-0.02;58.06;99548.92;123729;1109;104650;-79
2021/03/20 17:11:25;;;;;;;50.63;21.57;;;;;;;-0.02;58.07;99552.37;123764;1108;104374;-79
2021/03/20 17:13:53;;;;;;;55.00;23.77;;;;;;;-0.01;57.87;99555.88;123957;1109;104246;-78
2021/03/20 17:16:20;;;;;;;52.23;22.83;;;;;;;-0.02;58.25;99559.38;124018;1109;104271;-76
2021/03/20 17:18:48;;;;;;;53.25;24.55;;;;;;;-0.04;57.56;99566.40;123992;1108;104312;-78
2021/03/20 17:21:17;;;;;;;62.13;25.87;;;;;;;-0.05;57.71;99565.52;123816;1109;104307;-80
2021/03/20 17:23:45;;;;;;;60.03;26.70;;;;;;;-0.11;57.79;99565.64;123768;1109;104289;-76
2021/03/20 17:26:13;;;;;;;61.45;26.73;;;;;;;-0.07;57.96;99569.08;123682;1109;104284;-77
2021/03/20 17:28:41;;;;;;;59.23;27.30;;;;;;;-0.11;58.01;99565.64;123739;1109;104653;-76
2021/03/20 17:31:12;;;;;;;57.50;25.30;;;;;;;-0.14;57.83;99565.70;123677;1109;104463;-80
2021/03/20 17:33:40;;;;;;;69.33;27.10;;;;;;;-0.15;58.13;99566.59;123755;1108;104194;-78
2021/03/20 17:36:13;;;;;;;61.40;28.20;;;;;;;-0.15;57.41;99566.59;123717;1109;104544;-81
2021/03/20 17:38:41;;;;;;;66.53;29.27;;;;;;;-0.17;57.31;99565.77;124174;1108;104268;-84
2021/03/20 17:41:08;;;;;;;63.77;27.50;;;;;;;-0.18;57.70;99564.92;124323;1109;104191;-84
2021/03/20 17:43:38;;;;;;;62.77;26.97;;;;;;;-0.19;58.04;99570.17;124128;1109;104251;-83
2021/03/20 17:46:10;;;;;;;64.20;27.37;;;;;;;-0.20;57.70;99564.09;124312;1109;104313;-83
2021/03/20 17:48:38;;;;;;;55.57;27.73;;;;;;;-0.20;57.98;99568.44;124395;1109;104594;-83
2021/03/20 17:51:06;;;;;;;55.23;26.13;;;;;;;-0.20;56.85;99574.55;124394;1109;104156;-85
2021/03/20 17:53:33;;;;;;;62.53;28.50;;;;;;;-0.20;57.70;99573.67;124341;1108;104238;-81
2021/03/20 17:56:00;;;;;;;62.93;27.30;;;;;;;-0.21;57.56;99564.14;124310;1109;104331;-80
2021/03/20 17:58:29;;;;;;;63.55;28.42;;;;;;;-0.23;57.02;99563.30;123579;1109;104219;-82
2021/03/20 18:01:01;;;;;;;74.47;30.20;;;;;;;-0.23;57.33;99571.15;124283;1109;105407;-83
2021/03/20 18:03:29;;;;;;;68.87;30.33;;;;;;;-0.21;57.46;99566.75;124229;1108;104248;-81
2021/03/20 18:05:57;;;;;;;69.20;29.30;;;;;;;-0.22;57.31;99565.03;124201;1109;104207;-80
2021/03/20 18:08:25;;;;;;;73.93;32.87;;;;;;;-0.22;57.21;99562.41;123920;1109;104214;-80
2021/03/20 18:10:57;;;;;;;68.37;29.93;;;;;;;-0.23;57.87;99553.69;123821;1109;105278;-81
2021/03/20 18:13:24;;;;;;;67.67;28.30;;;;;;;-0.23;56.86;99564.16;123855;1108;104411;-88
2021/03/20 18:15:53;;;;;;;60.27;27.37;;;;;;;-0.24;56.74;99567.66;124276;1109;104621;-81
2021/03/20 18:18:23;;;;;;;55.63;24.13;;;;;;;-0.25;56.71;99562.47;124190;1109;104163;-82
2021/03/20 18:20:52;;;;;;;55.83;23.63;;;;;;;-0.27;57.20;99556.41;124184;1109;104159;-83
2021/03/20 18:23:21;;;;;;;58.43;25.70;;;;;;;-0.27;56.68;99562.48;124225;1109;104161;-83
2021/03/20 18:25:51;;;;;;;61.40;29.40;;;;;;;-0.27;56.75;99556.41;124249;1109;104219;-75
2021/03/20 18:28:29;;;;;;;53.30;26.33;;;;;;;-0.28;57.19;99567.77;124023;1109;104285;-83
2021/03/20 18:31:00;;;;;;;52.47;24.27;;;;;;;-0.32;57.21;99562.59;124217;1109;104194;-83
2021/03/20 18:33:31;;;;;;;56.58;25.97;;;;;;;-0.33;57.39;99563.48;124250;1109;104325;-90
2021/03/20 18:35:59;;;;;;;54.53;25.93;;;;;;;-0.34;56.96;99564.38;124647;1109;102109;-84
2021/03/20 18:38:29;;;;;;;63.67;28.10;;;;;;;-0.36;57.30;99563.55;124337;1109;104544;-84
2021/03/20 18:40:57;;;;;;;56.37;24.60;;;;;;;-0.32;56.99;99569.56;124340;1109;104188;-87
2021/03/20 18:43:25;;;;;;;59.67;27.07;;;;;;;-0.34;57.54;99571.34;124181;1109;104224;-87
2021/03/20 18:45:53;;;;;;;49.93;23.17;;;;;;;-0.36;57.43;99571.39;124335;1109;104281;-86
2021/03/20 18:48:21;;;;;;;54.70;25.23;;;;;;;-0.37;56.76;99571.40;124309;1109;104190;-88
2021/03/20 18:50:48;;;;;;;51.47;22.83;;;;;;;-0.40;57.38;99566.23;124353;1109;104290;-88
2021/03/20 18:53:16;;;;;;;51.77;21.50;;;;;;;-0.44;56.53;99561.98;124278;1109;104242;-86
2021/03/20 18:55:45;;;;;;;47.73;21.27;;;;;;;-0.49;56.56;99557.70;124266;1109;104268;-86
2021/03/20 18:58:23;;;;;;;48.03;21.23;;;;;;;-0.52;56.63;99555.15;124150;1109;104174;-84
2021/03/20 19:00:51;;;;;;;50.33;21.13;;;;;;;-0.55;56.56;99557.81;124327;1109;104165;-84
2021/03/20 19:03:25;;;;;;;44.30;19.57;;;;;;;-0.56;56.33;99560.44;124233;1109;104161;-85
2021/03/20 19:05:55;;;;;;;50.17;21.10;;;;;;;-0.57;56.27;99549.14;124222;1108;104641;-81
2021/03/20 19:08:33;;;;;;;44.50;20.23;;;;;;;-0.58;56.51;99551.77;124194;1109;104642;-86
2021/03/20 19:11:07;;;;;;;49.93;23.50;;;;;;;-0.54;57.21;99558.66;124174;1109;104354;-88
2021/03/20 19:13:34;;;;;;;53.97;23.97;;;;;;;-0.57;56.73;99556.98;124239;1109;104188;-82
2021/03/20 19:16:01;;;;;;;50.57;23.07;;;;;;;-0.58;56.41;99555.27;124195;1109;104313;-82
2021/03/20 19:18:33;;;;;;;50.77;25.37;;;;;;;-0.61;56.25;99553.55;124129;1109;104350;-84
2021/03/20 19:21:02;;;;;;;53.33;24.40;;;;;;;-0.63;57.23;99551.87;124215;1109;104248;-82
2021/03/20 19:23:31;;;;;;;55.10;24.83;;;;;;;-0.64;56.42;99544.92;124304;1109;104236;-87
2021/03/20 19:26:00;;;;;;;54.05;23.70;;;;;;;-0.62;57.35;99548.37;124220;1109;104245;-83
2021/03/20 19:28:31;;;;;;;54.00;24.77;;;;;;;-0.61;56.59;99550.09;124228;1109;104268;-85
2021/03/20 19:31:02;;;;;;;51.63;24.70;;;;;;;-0.65;57.29;99541.47;124394;1109;104158;-85
2021/03/20 19:33:32;;;;;;;60.17;25.63;;;;;;;-0.66;56.95;99546.70;124502;1109;104251;-88
2021/03/20 19:36:03;;;;;;;51.23;25.37;;;;;;;-0.73;56.69;99545.09;124495;1109;104701;-83
2021/03/20 19:38:31;;;;;;;51.73;24.07;;;;;;;-0.78;57.16;99537.35;124324;1108;104261;-85
2021/03/20 19:40:58;;;;;;;58.37;25.10;;;;;;;-0.82;56.98;99538.30;124234;1108;104186;-85
2021/03/20 19:43:27;;;;;;;57.43;25.80;;;;;;;-0.86;56.19;99545.34;124233;1108;104271;-84
2021/03/20 19:45:55;;;;;;;57.07;25.80;;;;;;;-0.93;56.87;99544.57;124252;1109;104299;-85
2021/03/20 19:48:24;;;;;;;57.37;27.60;;;;;;;-0.94;56.04;99539.39;124284;1109;104325;-86
2021/03/20 19:50:56;;;;;;;58.67;28.00;;;;;;;-0.98;56.55;99535.11;124311;1109;104242;-87
2021/03/20 19:53:47;;;;;;;54.77;25.63;;;;;;;-1.00;57.09;99539.49;124257;1109;104328;-85
2021/03/20 19:56:16;;;;;;;61.07;27.73;;;;;;;-1.02;57.05;99536.05;124274;1109;103990;-85
2021/03/20 19:58:44;;;;;;;55.43;25.43;;;;;;;-1.05;56.05;99539.59;124276;1108;104259;-83
2021/03/20 20:01:19;;;;;;;54.73;24.73;;;;;;;-1.07;57.13;99542.20;124185;1109;104252;-82
2021/03/20 20:03:47;;;;;;;55.87;25.20;;;;;;;-1.11;55.99;99544.91;124305;1108;104691;-84
2021/03/20 20:06:15;;;;;;;54.07;25.33;;;;;;;-1.15;56.91;99543.23;124305;1109;104217;-85
2021/03/20 20:08:42;;;;;;;59.57;27.63;;;;;;;-1.17;56.18;99545.01;124124;1109;104268;-89
2021/03/20 20:11:12;;;;;;;57.13;27.57;;;;;;;-1.21;56.82;99536.34;124230;1109;104203;-85
2021/03/20 20:13:42;;;;;;;57.63;26.80;;;;;;;-1.24;56.38;99536.44;124225;1109;104255;-83
2021/03/20 20:16:09;;;;;;;61.43;28.83;;;;;;;-1.25;56.04;99546.00;124278;1109;104187;-83
2021/03/20 20:18:45;;;;;;;61.13;28.27;;;;;;;-1.28;56.61;99540.83;124219;1109;104310;-87
2021/03/20 20:21:20;;;;;;;62.05;27.60;;;;;;;-1.29;56.02;99535.64;124119;1108;104328;-85
2021/03/20 20:24:12;;;;;;;63.43;29.63;;;;;;;-1.32;56.55;99533.93;124181;1109;104351;-84
2021/03/20 20:26:47;;;;;;;64.33;30.10;;;;;;;-1.33;56.46;99541.80;124160;1108;104357;-79
2021/03/20 20:29:18;;;;;;;67.30;30.60;;;;;;;-1.36;56.45;99537.47;124114;1108;104341;-76
2021/03/20 20:31:46;;;;;;;63.33;28.60;;;;;;;-1.38;55.97;99536.64;123963;1109;104304;-79
2021/03/20 20:34:14;;;;;;;62.30;28.97;;;;;;;-1.42;56.42;99541.05;123995;1108;104124;-79
2021/03/20 20:36:41;;;;;;;60.08;27.75;;;;;;;-1.48;56.59;99540.30;123950;1108;104220;-74
2021/03/20 20:39:08;;;;;;;74.37;31.83;;;;;;;-1.54;56.55;99536.90;124444;1109;104268;-84
2021/03/20 20:41:47;;;;;;;64.97;30.53;;;;;;;-1.58;56.06;99537.83;124463;1109;104162;-88
2021/03/20 20:44:28;;;;;;;75.97;33.93;;;;;;;-1.63;56.52;99541.41;124492;1109;104265;-86
2021/03/20 20:47:02;;;;;;;69.03;31.57;;;;;;;-1.70;56.94;99538.89;124547;1108;104184;-85
2021/03/20 20:49:31;;;;;;;98.80;45.07;;;;;;;-1.73;57.08;99538.93;124432;1108;104633;-83
2021/03/20 20:51:59;;;;;;;97.03;44.20;;;;;;;-1.73;56.98;99532.83;124394;1108;104320;-85
2021/03/20 20:54:33;;;;;;;104.87;46.13;;;;;;;-1.75;56.81;99529.39;124313;1109;104210;-86
2021/03/20 20:57:05;;;;;;;106.37;51.20;;;;;;;-1.73;56.36;99545.88;124212;1109;104418;-85
2021/03/20 20:59:36;;;;;;;96.93;46.37;;;;;;;-1.72;56.29;99539.78;124222;1108;104249;-86
2021/03/20 21:02:04;;;;;;;102.20;46.60;;;;;;;-1.72;57.07;99540.66;124281;1109;104270;-84
2021/03/20 21:04:32;;;;;;;93.20;45.10;;;;;;;-1.73;56.57;99538.93;124294;1109;104213;-83
2021/03/20 21:06:59;;;;;;;94.93;43.73;;;;;;;-1.76;55.81;99541.58;124257;1107;104159;-84
2021/03/20 21:09:28;;;;;;;103.77;46.37;;;;;;;-1.78;56.29;99532.03;124354;1107;104288;-82
2021/03/20 21:11:55;;;;;;;96.12;45.63;;;;;;;-1.80;57.04;99540.74;124305;1109;104162;-83
2021/03/20 21:14:23;;;;;;;84.00;41.20;;;;;;;-1.82;57.32;99531.23;124482;1109;105053;-83
2021/03/20 21:16:54;;;;;;;89.00;40.50;;;;;;;-1.85;57.36;99524.33;124340;1109;104164;-86
2021/03/20 21:19:22;;;;;;;76.53;36.30;;;;;;;-1.86;56.86;99521.73;124298;1109;104181;-85
2021/03/20 21:21:49;;;;;;;85.03;37.87;;;;;;;-1.88;55.99;99526.98;124316;1109;104175;-83
2021/03/20 21:24:18;;;;;;;86.27;38.70;;;;;;;-1.90;56.88;99531.36;124299;1109;104226;-84
2021/03/20 21:26:46;;;;;;;78.67;37.17;;;;;;;-1.92;55.97;99525.30;124337;1109;104242;-85
2021/03/20 21:29:17;;;;;;;79.63;36.63;;;;;;;-1.92;56.56;99546.16;124458;1108;104248;-87
2021/03/20 21:31:44;;;;;;;81.97;37.53;;;;;;;-1.95;56.42;99520.97;124364;1108;104219;-85
2021/03/20 21:34:14;;;;;;;79.70;35.65;;;;;;;-1.96;56.57;99519.25;124352;1108;104425;-85
2021/03/20 21:36:41;;;;;;;76.00;34.20;;;;;;;-1.98;57.05;99520.17;124355;1109;104210;-86
2021/03/20 21:39:08;;;;;;;62.23;29.93;;;;;;;-2.02;55.99;99516.72;124447;1108;104261;-88
2021/03/20 21:41:35;;;;;;;65.93;28.87;;;;;;;-2.03;56.85;99515.00;124465;1109;104239;-87
2021/03/20 21:44:03;;;;;;;61.70;27.63;;;;;;;-2.03;56.25;99520.21;124468;1108;104239;-90
2021/03/20 21:46:30;;;;;;;58.43;27.37;;;;;;;-2.03;56.24;99514.16;124317;1108;104261;-87
2021/03/20 21:48:57;;;;;;;63.38;27.32;;;;;;;-2.04;56.22;99505.48;124305;1109;104265;-86
2021/03/20 21:51:24;;;;;;;59.43;25.87;;;;;;;-2.07;55.77;99504.64;124324;1109;104207;-85
2021/03/20 21:53:52;;;;;;;59.63;26.30;;;;;;;-2.11;55.86;99506.45;124316;1106;104217;-83
2021/03/20 21:56:21;;;;;;;50.00;24.93;;;;;;;-2.12;56.50;99502.96;124300;1109;104213;-82
2021/03/20 21:58:50;;;;;;;53.23;23.53;;;;;;;-2.16;56.46;99495.22;124321;1108;104358;-82
2021/03/20 22:01:20;;;;;;;59.13;25.77;;;;;;;-2.18;56.05;99492.61;124230;1109;104731;-83
2021/03/20 22:03:48;;;;;;;61.60;26.67;;;;;;;-2.22;55.59;99501.36;124304;1108;104162;-84
2021/03/20 22:06:17;;;;;;;58.13;27.13;;;;;;;-2.23;56.44;99493.58;124201;1108;104306;-82
2021/03/20 22:08:44;;;;;;;59.10;27.43;;;;;;;-2.24;56.83;99487.48;124319;1109;104162;-80
2021/03/20 22:11:11;;;;;;;60.45;27.98;;;;;;;-2.24;56.14;99492.70;124244;1109;104252;-82
2021/03/20 22:13:38;;;;;;;60.43;27.73;;;;;;;-2.27;55.63;99488.41;124149;1109;104303;-81
2021/03/20 22:16:06;;;;;;;61.23;27.37;;;;;;;-2.30;55.80;99488.44;124285;1109;104159;-82
2021/03/20 22:18:33;;;;;;;53.23;24.40;;;;;;;-2.36;56.08;99482.46;124218;1109;104191;-83
2021/03/20 22:21:00;;;;;;;59.97;27.67;;;;;;;-2.43;56.74;99484.27;124337;1109;104220;-82
2021/03/20 22:23:29;;;;;;;59.00;26.77;;;;;;;-2.47;56.32;99482.61;124244;1109;104150;-82
2021/03/20 22:26:01;;;;;;;60.50;26.63;;;;;;;-2.55;56.47;99486.16;124304;1108;104251;-83
2021/03/20 22:28:33;;;;;;;64.87;28.67;;;;;;;-2.61;55.67;99487.96;124230;1108;104236;-82
2021/03/20 22:31:03;;;;;;;59.00;27.27;;;;;;;-2.63;56.12;99477.58;124682;1109;104341;-82
2021/03/20 22:33:32;;;;;;;68.83;31.37;;;;;;;-2.64;55.96;99485.39;124247;1109;104261;-82
2021/03/20 22:36:00;;;;;;;61.27;28.20;;;;;;;-2.66;55.61;99481.98;124358;1109;104271;-83
2021/03/20 22:38:27;;;;;;;70.97;30.10;;;;;;;-2.68;56.58;99486.34;124272;1106;104219;-81
2021/03/20 22:40:57;;;;;;;69.35;30.52;;;;;;;-2.69;56.61;99488.06;124355;1109;104296;-82
2021/03/20 22:43:28;;;;;;;65.47;30.37;;;;;;;-2.70;55.81;99479.41;124301;1108;104184;-82
2021/03/20 22:45:56;;;;;;;76.50;32.17;;;;;;;-2.67;55.94;99477.64;124249;1108;104152;-83
2021/03/20 22:48:24;;;;;;;69.80;31.45;;;;;;;-2.70;56.58;99468.98;124298;1109;104182;-79
2021/03/20 22:50:54;;;;;;;65.90;28.53;;;;;;;-2.77;55.66;99461.25;124357;1108;104210;-80
2021/03/20 22:53:21;;;;;;;65.13;30.83;;;;;;;-2.82;56.35;99465.64;124135;1108;104184;-80
2021/03/20 22:56:07;;;;;;;71.10;30.37;;;;;;;-2.87;55.74;99468.31;124200;1109;104258;-81
2021/03/20 22:58:35;;;;;;;67.90;30.97;;;;;;;-2.92;56.23;99464.89;124245;1109;102354;-83
2021/03/20 23:01:04;;;;;;;72.03;32.70;;;;;;;-2.97;56.74;99459.75;124244;1108;104408;-82
2021/03/20 23:03:37;;;;;;;76.57;34.57;;;;;;;-2.97;55.82;99457.15;124330;1108;104171;-84
2021/03/20 23:06:10;;;;;;;69.90;32.93;;;;;;;-2.97;56.53;99458.88;124402;1109;104210;-83
2021/03/20 23:08:42;;;;;;;67.00;31.00;;;;;;;-2.96;56.45;99461.48;124325;1109;104158;-84
2021/03/20 23:11:18;;;;;;;64.10;29.57;;;;;;;-2.95;55.87;99463.20;124133;1108;104158;-83
2021/03/20 23:13:49;;;;;;;67.60;32.20;;;;;;;-2.97;56.13;99461.48;124185;1109;104322;-84
2021/03/20 23:16:27;;;;;;;66.87;29.90;;;;;;;-2.97;56.27;99459.75;124184;1109;104256;-85
2021/03/20 23:18:54;;;;;;;72.93;29.70;;;;;;;-2.96;55.82;99461.48;124149;1106;104181;-84
2021/03/20 23:21:25;;;;;;;66.23;31.90;;;;;;;-2.95;56.42;99458.00;124255;1109;104611;-83
2021/03/20 23:23:52;;;;;;;59.33;26.00;;;;;;;-2.94;56.89;99454.52;124097;1109;104184;-85
2021/03/20 23:26:43;;;;;;;65.80;29.73;;;;;;;-2.97;56.42;99448.46;124235;1109;104319;-82
2021/03/20 23:29:20;;;;;;;64.80;28.63;;;;;;;-2.99;56.81;99449.34;124116;1109;104380;-84
2021/03/20 23:31:49;;;;;;;65.67;29.27;;;;;;;-2.99;55.93;99445.89;124172;1108;104245;-83
2021/03/20 23:34:19;;;;;;;64.73;29.17;;;;;;;-3.00;56.51;99441.56;124135;1109;104264;-82
2021/03/20 23:36:50;;;;;;;60.13;25.30;;;;;;;-3.02;56.00;99443.32;124110;1108;104306;-83
2021/03/20 23:39:18;;;;;;;61.63;27.80;;;;;;;-3.05;56.04;99441.59;124420;1106;104338;-82
2021/03/20 23:41:47;;;;;;;59.93;26.00;;;;;;;-3.06;56.22;99433.82;124188;1109;104166;-83
2021/03/20 23:44:21;;;;;;;55.17;25.20;;;;;;;-3.04;56.78;99432.06;124293;1108;104238;-82
2021/03/20 23:46:53;;;;;;;57.60;25.00;;;;;;;-3.04;56.33;99432.06;124129;1109;104278;-83
2021/03/20 23:49:25;;;;;;;55.23;23.50;;;;;;;-3.03;56.05;99425.98;124266;1106;104175;-81
2021/03/20 23:51:52;;;;;;;55.10;22.63;;;;;;;-3.03;55.94;99420.77;124213;1108;104364;-82
2021/03/20 23:54:19;;;;;;;50.83;21.87;;;;;;;-3.03;56.57;99418.17;124057;1109;104243;-83
2021/03/20 23:56:50;;;;;;;49.73;21.10;;;;;;;-3.04;55.75;99412.09;124223;1109;104277;-82
2021/03/20 23:59:19;;;;;;;49.57;21.13;;;;;;;-3.04;56.16;99411.24;124079;1109;104273;-82
